createdAt,value
2019-03-11T00:01:46.904Z,86.31
2019-03-11T00:04:14.783Z,86.07
2019-03-11T00:06:41.979Z,86.19
2019-03-11T00:09:08.659Z,86.37
2019-03-11T00:11:35.363Z,86.61
2019-03-11T00:14:02.197Z,86.51
2019-03-11T00:16:29.015Z,86.54
2019-03-11T00:18:55.788Z,86.29
2019-03-11T00:21:22.361Z,86.13
2019-03-11T00:23:49.111Z,86.19
2019-03-11T00:26:15.781Z,85.68
2019-03-11T00:28:42.525Z,86.16
2019-03-11T00:31:09.195Z,85.82
2019-03-11T00:33:35.842Z,85.36
2019-03-11T00:36:02.634Z,85.64
2019-03-11T00:38:29.363Z,85.90
2019-03-11T00:40:56.172Z,85.93
2019-03-11T00:43:22.909Z,85.77
2019-03-11T00:45:49.605Z,85.59
2019-03-11T00:48:16.398Z,86.00
2019-03-11T00:50:43.072Z,86.01
2019-03-11T00:53:09.932Z,86.23
2019-03-11T00:55:36.618Z,86.25
2019-03-11T00:58:03.449Z,85.96
2019-03-11T01:00:32.339Z,85.79
2019-03-11T01:02:59.174Z,85.69
2019-03-11T01:05:25.843Z,86.08
2019-03-11T01:07:52.539Z,85.96
2019-03-11T01:10:19.315Z,85.86
2019-03-11T01:12:46.012Z,85.58
2019-03-11T01:15:12.794Z,85.81
2019-03-11T01:17:39.570Z,85.69
2019-03-11T01:20:06.413Z,85.52
2019-03-11T01:22:33.100Z,85.64
2019-03-11T01:24:59.816Z,85.48
2019-03-11T01:27:26.491Z,85.26
2019-03-11T01:29:53.187Z,85.22
2019-03-11T01:32:19.864Z,84.76
2019-03-11T01:34:46.507Z,84.68
2019-03-11T01:37:13.081Z,84.43
2019-03-11T01:39:39.700Z,84.48
2019-03-11T01:42:06.377Z,84.32
2019-03-11T01:44:33.221Z,84.56
2019-03-11T01:46:59.899Z,85.08
2019-03-11T01:49:26.604Z,85.10
2019-03-11T01:51:53.290Z,84.49
2019-03-11T01:54:19.898Z,84.00
2019-03-11T01:56:46.571Z,83.98
2019-03-11T01:59:13.376Z,84.26
2019-03-11T02:01:40.048Z,83.97
2019-03-11T02:04:06.743Z,83.86
2019-03-11T02:06:33.415Z,83.79
2019-03-11T02:09:00.025Z,83.52
2019-03-11T02:11:26.818Z,83.90
2019-03-11T02:13:53.628Z,83.25
2019-03-11T02:16:20.312Z,83.56
2019-03-11T02:18:47.023Z,84.14
2019-03-11T02:21:13.701Z,85.00
2019-03-11T02:23:40.515Z,84.99
2019-03-11T02:26:07.513Z,85.46
2019-03-11T02:28:34.378Z,85.39
2019-03-11T02:31:01.498Z,86.06
2019-03-11T02:33:28.626Z,86.62
2019-03-11T02:35:55.744Z,86.91
2019-03-11T02:38:22.508Z,87.09
2019-03-11T02:40:49.376Z,88.07
2019-03-11T02:43:16.495Z,88.67
2019-03-11T02:45:43.539Z,88.96
2019-03-11T02:48:11.033Z,88.99
2019-03-11T02:50:38.919Z,88.83
2019-03-11T02:53:06.098Z,88.65
2019-03-11T02:55:33.182Z,88.51
2019-03-11T02:58:00.434Z,88.42
2019-03-11T03:00:27.514Z,88.34
2019-03-11T03:03:02.083Z,88.61
2019-03-11T03:05:41.346Z,88.50
2019-03-11T03:08:08.346Z,88.46
2019-03-11T03:10:35.043Z,88.46
2019-03-11T03:13:01.860Z,88.35
2019-03-11T03:15:28.868Z,88.22
2019-03-11T03:17:55.665Z,88.20
2019-03-11T03:20:22.376Z,87.93
2019-03-11T03:22:49.070Z,88.00
2019-03-11T03:25:15.868Z,88.14
2019-03-11T03:27:42.634Z,88.49
2019-03-11T03:30:12.006Z,88.64
2019-03-11T03:32:38.606Z,88.91
2019-03-11T03:35:05.519Z,88.86
2019-03-11T03:37:32.298Z,88.78
2019-03-11T03:39:58.892Z,88.85
2019-03-11T03:42:25.810Z,88.84
2019-03-11T03:45:20.820Z,88.83
2019-03-11T03:47:47.648Z,88.78
2019-03-11T03:50:14.434Z,88.79
2019-03-11T03:52:41.040Z,88.92
2019-03-11T03:55:07.837Z,88.33
2019-03-11T03:57:34.657Z,87.92
2019-03-11T04:00:01.446Z,87.85
2019-03-11T04:02:28.248Z,87.83
2019-03-11T04:04:55.030Z,87.72
2019-03-11T04:07:22.109Z,87.35
2019-03-11T04:09:50.091Z,87.71
2019-03-11T04:12:16.800Z,87.87
2019-03-11T04:14:43.505Z,87.59
2019-03-11T04:17:10.332Z,87.59
2019-03-11T04:19:37.112Z,87.41
2019-03-11T04:22:03.935Z,87.36
2019-03-11T04:24:30.741Z,87.52
2019-03-11T04:26:59.360Z,87.55
2019-03-11T04:29:26.143Z,87.59
2019-03-11T04:31:53.342Z,87.41
2019-03-11T04:34:20.133Z,87.56
2019-03-11T04:36:46.937Z,87.64
2019-03-11T04:39:13.907Z,87.52
2019-03-11T04:41:40.740Z,87.53
2019-03-11T04:44:07.821Z,87.67
2019-03-11T04:46:34.623Z,87.47
2019-03-11T04:49:01.526Z,87.58
2019-03-11T04:51:28.330Z,87.06
2019-03-11T04:53:55.117Z,87.17
2019-03-11T04:56:22.332Z,86.86
2019-03-11T04:58:49.116Z,86.82
2019-03-11T05:01:15.915Z,87.01
2019-03-11T05:03:42.743Z,86.69
2019-03-11T05:06:09.743Z,86.40
2019-03-11T05:08:36.557Z,86.20
2019-03-11T05:11:03.345Z,85.98
2019-03-11T05:13:30.475Z,85.91
2019-03-11T05:15:57.186Z,85.54
2019-03-11T05:18:23.893Z,85.92
2019-03-11T05:20:50.573Z,85.43
2019-03-11T05:23:17.298Z,85.37
2019-03-11T05:25:43.989Z,85.00
2019-03-11T05:28:10.795Z,85.34
2019-03-11T05:30:37.494Z,85.54
2019-03-11T05:33:04.315Z,85.21
2019-03-11T05:35:42.390Z,85.44
2019-03-11T05:38:08.993Z,84.91
2019-03-11T05:40:36.114Z,84.52
2019-03-11T05:43:03.037Z,83.71
2019-03-11T05:45:29.720Z,83.42
2019-03-11T05:47:56.453Z,83.94
2019-03-11T05:50:23.152Z,84.02
2019-03-11T05:52:53.728Z,83.89
2019-03-11T05:55:20.691Z,83.29
2019-03-11T05:57:47.723Z,84.20
2019-03-11T06:00:17.789Z,82.75
2019-03-11T06:02:47.324Z,82.98
2019-03-11T06:05:14.099Z,82.79
2019-03-11T06:07:42.565Z,82.48
2019-03-11T06:10:10.089Z,82.54
2019-03-11T06:12:36.885Z,82.33
2019-03-11T06:15:04.898Z,83.02
2019-03-11T06:17:31.712Z,83.03
2019-03-11T06:20:12.406Z,82.83
2019-03-11T06:22:38.780Z,82.71
2019-03-11T06:25:05.620Z,81.93
2019-03-11T06:27:32.309Z,82.33
2019-03-11T06:29:59.013Z,82.03
2019-03-11T06:32:25.800Z,81.98
2019-03-11T06:34:52.508Z,81.52
2019-03-11T06:37:19.309Z,81.46
2019-03-11T06:39:45.929Z,81.12
2019-03-11T06:42:12.634Z,81.78
2019-03-11T06:44:39.352Z,81.44
2019-03-11T06:47:05.962Z,82.06
2019-03-11T06:49:32.632Z,81.31
2019-03-11T06:51:59.229Z,81.24
2019-03-11T06:54:25.940Z,81.82
2019-03-11T06:56:52.528Z,82.87
2019-03-11T06:59:19.140Z,83.59
2019-03-11T07:01:46.037Z,83.64
2019-03-11T07:04:12.840Z,84.37
2019-03-11T07:06:39.635Z,84.79
2019-03-11T07:09:07.749Z,84.82
2019-03-11T07:11:34.876Z,84.73
2019-03-11T07:14:01.608Z,85.83
2019-03-11T07:16:28.317Z,86.94
2019-03-11T07:18:55.016Z,87.81
2019-03-11T07:21:21.600Z,88.42
2019-03-11T07:23:48.271Z,88.93
2019-03-11T07:26:15.079Z,89.18
2019-03-11T07:28:41.765Z,89.01
2019-03-11T07:31:08.473Z,89.25
2019-03-11T07:33:35.056Z,89.05
2019-03-11T07:36:01.861Z,89.05
2019-03-11T07:38:28.569Z,88.83
2019-03-11T07:40:55.407Z,88.30
2019-03-11T07:43:22.111Z,87.99
2019-03-11T07:45:48.791Z,87.33
2019-03-11T07:48:15.399Z,87.10
2019-03-11T07:50:42.217Z,86.85
2019-03-11T07:53:09.213Z,85.87
2019-03-11T07:55:35.929Z,85.61
2019-03-11T07:58:02.726Z,85.22
2019-03-11T08:00:29.928Z,84.91
2019-03-11T08:02:56.554Z,84.86
2019-03-11T08:05:24.780Z,85.35
2019-03-11T08:07:51.641Z,85.15
2019-03-11T08:10:18.342Z,84.82
2019-03-11T08:12:45.115Z,84.45
2019-03-11T08:15:11.996Z,83.73
2019-03-11T08:17:39.191Z,83.91
2019-03-11T08:20:07.556Z,84.06
2019-03-11T08:22:34.379Z,82.93
2019-03-11T08:25:01.072Z,83.06
2019-03-11T08:27:27.786Z,83.27
2019-03-11T08:29:54.608Z,83.47
2019-03-11T08:32:21.297Z,83.37
2019-03-11T08:34:48.101Z,82.96
2019-03-11T08:37:14.815Z,82.61
2019-03-11T08:39:41.501Z,82.20
2019-03-11T08:42:08.479Z,82.03
2019-03-11T08:44:35.179Z,82.52
2019-03-11T08:47:01.987Z,82.66
2019-03-11T08:49:28.667Z,82.75
2019-03-11T08:51:55.382Z,83.25
2019-03-11T08:54:21.984Z,81.95
2019-03-11T08:56:48.688Z,81.44
2019-03-11T08:59:15.719Z,80.73
2019-03-11T09:01:42.533Z,79.90
2019-03-11T09:04:09.327Z,80.34
2019-03-11T09:06:36.023Z,81.77
2019-03-11T09:09:05.554Z,83.06
2019-03-11T09:11:32.303Z,83.98
2019-03-11T09:14:00.211Z,85.60
2019-03-11T09:16:27.028Z,86.40
2019-03-11T09:18:53.604Z,87.29
2019-03-11T09:21:20.514Z,87.33
2019-03-11T09:23:47.325Z,88.04
2019-03-11T09:26:14.139Z,88.31
2019-03-11T09:28:41.324Z,88.46
2019-03-11T09:31:08.429Z,88.32
2019-03-11T09:33:35.116Z,88.60
2019-03-11T09:36:01.827Z,88.91
2019-03-11T09:38:28.436Z,88.46
2019-03-11T09:40:55.254Z,88.64
2019-03-11T09:43:21.967Z,88.72
2019-03-11T09:45:48.775Z,88.12
2019-03-11T09:48:15.458Z,88.07
2019-03-11T09:50:42.242Z,87.71
2019-03-11T09:53:09.051Z,87.85
2019-03-11T09:55:36.251Z,87.90
2019-03-11T09:58:03.062Z,87.07
2019-03-11T10:00:51.255Z,87.12
2019-03-11T10:03:17.998Z,86.33
2019-03-11T10:05:44.781Z,86.09
2019-03-11T10:08:11.842Z,85.59
2019-03-11T10:10:38.551Z,85.44
2019-03-11T10:13:05.349Z,85.98
2019-03-11T10:15:32.125Z,86.44
2019-03-11T10:17:58.942Z,85.95
2019-03-11T10:20:25.728Z,86.57
2019-03-11T10:22:52.329Z,87.22
2019-03-11T10:25:19.106Z,86.94
2019-03-11T10:27:45.969Z,87.09
2019-03-11T10:30:14.066Z,86.58
2019-03-11T10:32:41.196Z,87.20
2019-03-11T10:35:30.202Z,87.42
2019-03-11T10:37:38.428Z,87.47
2019-03-11T10:40:07.487Z,87.75
2019-03-11T10:42:34.275Z,87.79
2019-03-11T10:45:00.982Z,87.51
2019-03-11T10:47:27.671Z,87.01
2019-03-11T10:49:54.435Z,86.85
2019-03-11T10:52:21.128Z,86.58
2019-03-11T10:54:47.825Z,85.15
2019-03-11T10:57:14.492Z,84.83
2019-03-11T10:59:41.100Z,85.13
2019-03-11T11:02:29.495Z,83.44
2019-03-11T11:04:56.088Z,83.35
2019-03-11T11:07:22.912Z,83.88
2019-03-11T11:09:49.605Z,82.07
2019-03-11T11:12:16.395Z,82.17
2019-03-11T11:14:43.193Z,83.00
2019-03-11T11:17:09.898Z,83.48
2019-03-11T11:19:36.882Z,83.32
2019-03-11T11:22:03.761Z,83.62
2019-03-11T11:24:30.584Z,84.32
2019-03-11T11:26:57.369Z,83.24
2019-03-11T11:29:24.066Z,82.82
2019-03-11T11:31:50.881Z,83.45
2019-03-11T11:34:17.675Z,83.75
2019-03-11T11:36:44.348Z,81.66
2019-03-11T11:39:11.144Z,81.44
2019-03-11T11:41:37.834Z,82.46
2019-03-11T11:44:04.619Z,81.21
2019-03-11T11:46:31.194Z,80.95
2019-03-11T11:48:57.882Z,81.38
2019-03-11T11:51:24.664Z,80.95
2019-03-11T11:53:51.364Z,81.85
2019-03-11T11:56:18.064Z,81.56
2019-03-11T11:58:44.757Z,81.61
2019-03-11T12:01:11.344Z,81.59
2019-03-11T12:03:38.132Z,82.02
2019-03-11T12:06:04.909Z,82.59
2019-03-11T12:08:32.735Z,82.06
2019-03-11T12:10:59.376Z,81.78
2019-03-11T12:13:26.167Z,81.63
2019-03-11T12:15:52.935Z,81.73
2019-03-11T12:18:19.610Z,81.52
2019-03-11T12:20:46.401Z,82.14
2019-03-11T12:23:13.189Z,82.07
2019-03-11T12:25:39.899Z,82.77
2019-03-11T12:28:06.668Z,82.63
2019-03-11T12:30:33.512Z,83.51
2019-03-11T12:33:00.298Z,84.70
2019-03-11T12:35:27.297Z,85.46
2019-03-11T12:37:54.567Z,85.66
2019-03-11T12:40:21.667Z,85.85
2019-03-11T12:42:48.550Z,86.10
2019-03-11T12:45:15.365Z,86.72
2019-03-11T12:47:42.215Z,87.15
2019-03-11T12:50:14.882Z,87.49
2019-03-11T12:52:41.813Z,87.89
2019-03-11T12:55:08.571Z,88.10
2019-03-11T12:57:35.351Z,88.74
2019-03-11T13:00:02.308Z,88.50
2019-03-11T13:02:28.996Z,88.84
2019-03-11T13:04:55.718Z,89.12
2019-03-11T13:07:22.392Z,88.82
2019-03-11T13:09:49.095Z,89.15
2019-03-11T13:12:15.871Z,89.34
2019-03-11T13:14:42.570Z,88.97
2019-03-11T13:17:09.385Z,88.76
2019-03-11T13:19:36.169Z,88.83
2019-03-11T13:22:02.952Z,88.14
2019-03-11T13:24:29.640Z,88.43
2019-03-11T13:26:56.335Z,87.71
2019-03-11T13:29:23.012Z,86.86
2019-03-11T13:31:49.609Z,85.92
2019-03-11T13:34:16.276Z,85.78
2019-03-11T13:36:42.979Z,86.51
2019-03-11T13:39:10.294Z,86.30
2019-03-11T13:41:37.007Z,86.77
2019-03-11T13:44:03.786Z,86.91
2019-03-11T13:46:30.580Z,87.07
2019-03-11T13:48:57.248Z,86.40
2019-03-11T13:51:23.953Z,86.22
2019-03-11T13:53:51.019Z,84.58
2019-03-11T13:56:17.937Z,84.29
2019-03-11T13:58:44.612Z,84.08
2019-03-11T14:01:11.405Z,82.44
2019-03-11T14:03:39.058Z,80.97
2019-03-11T14:06:05.888Z,80.62
2019-03-11T14:08:32.459Z,78.61
2019-03-11T14:10:59.272Z,78.61
2019-03-11T14:13:25.945Z,74.01
2019-03-11T14:15:52.745Z,77.06
2019-03-11T14:18:19.531Z,79.32
2019-03-11T14:20:46.227Z,79.23
2019-03-11T14:23:13.050Z,81.06
2019-03-11T14:25:39.735Z,79.89
2019-03-11T14:28:06.336Z,80.84
2019-03-11T14:30:33.097Z,77.29
2019-03-11T14:32:59.902Z,75.02
2019-03-11T14:35:27.449Z,76.71
2019-03-11T14:37:54.052Z,78.32
2019-03-11T14:40:20.867Z,78.91
2019-03-11T14:42:47.662Z,79.00
2019-03-11T14:45:14.483Z,80.83
2019-03-11T14:47:41.295Z,80.91
2019-03-11T14:50:08.314Z,81.58
2019-03-11T14:52:35.014Z,81.79
2019-03-11T14:55:01.701Z,81.32
2019-03-11T14:57:28.495Z,81.49
2019-03-11T14:59:55.091Z,82.81
2019-03-11T15:02:21.881Z,82.69
2019-03-11T15:04:50.882Z,82.94
2019-03-11T15:07:17.282Z,83.34
2019-03-11T15:09:51.361Z,84.14
2019-03-11T15:12:12.449Z,83.66
2019-03-11T15:14:39.218Z,83.84
2019-03-11T15:17:05.903Z,84.64
2019-03-11T15:19:32.574Z,84.59
2019-03-11T15:21:59.393Z,84.84
2019-03-11T15:24:26.169Z,85.27
2019-03-11T15:26:52.972Z,85.22
2019-03-11T15:29:19.757Z,85.36
2019-03-11T15:31:46.488Z,86.66
2019-03-11T15:34:13.300Z,86.44
2019-03-11T15:36:39.991Z,86.47
2019-03-11T15:39:07.204Z,86.40
2019-03-11T15:41:34.041Z,86.18
2019-03-11T15:44:00.643Z,85.48
2019-03-11T15:46:27.306Z,85.62
2019-03-11T15:48:54.103Z,85.43
2019-03-11T15:51:21.453Z,84.97
2019-03-11T15:53:48.192Z,84.89
2019-03-11T15:56:14.901Z,84.53
2019-03-11T15:58:41.829Z,85.18
2019-03-11T16:01:08.621Z,84.50
2019-03-11T16:03:36.564Z,84.01
2019-03-11T16:06:03.526Z,83.95
2019-03-11T16:08:30.328Z,84.31
2019-03-11T16:10:57.117Z,84.66
2019-03-11T16:13:23.819Z,84.95
2019-03-11T16:15:50.628Z,85.84
2019-03-11T16:18:17.423Z,86.40
2019-03-11T16:20:44.204Z,86.88
2019-03-11T16:23:10.939Z,87.35
2019-03-11T16:25:37.731Z,87.33
2019-03-11T16:28:04.511Z,87.47
2019-03-11T16:30:31.202Z,87.39
2019-03-11T16:33:00.224Z,87.38
2019-03-11T16:35:27.347Z,87.49
2019-03-11T16:37:54.241Z,87.55
2019-03-11T16:40:22.183Z,87.91
2019-03-11T16:42:48.982Z,87.75
2019-03-11T16:45:16.883Z,88.35
2019-03-11T16:47:43.693Z,88.29
2019-03-11T16:50:12.382Z,88.01
2019-03-11T16:52:38.988Z,87.97
2019-03-11T16:55:07.509Z,88.48
2019-03-11T16:57:34.184Z,88.35
2019-03-11T17:00:00.992Z,88.17
2019-03-11T17:02:27.671Z,88.61
2019-03-11T17:04:54.471Z,88.72
2019-03-11T17:07:21.257Z,89.20
2019-03-11T17:09:47.954Z,89.15
2019-03-11T17:12:14.734Z,89.17
2019-03-11T17:14:41.441Z,89.24
2019-03-11T17:17:08.289Z,89.56
2019-03-11T17:19:34.905Z,89.32
2019-03-11T17:22:01.591Z,89.41
2019-03-11T17:24:28.404Z,89.12
2019-03-11T17:26:55.184Z,89.51
2019-03-11T17:29:22.002Z,89.40
2019-03-11T17:31:48.686Z,89.56
2019-03-11T17:34:15.380Z,89.76
2019-03-11T17:36:42.094Z,89.52
2019-03-11T17:39:09.369Z,89.44
2019-03-11T17:41:36.192Z,89.73
2019-03-11T17:44:03.152Z,89.95
2019-03-11T17:46:30.034Z,90.04
2019-03-11T17:48:56.824Z,90.25
2019-03-11T17:51:23.636Z,90.22
2019-03-11T17:53:50.412Z,90.24
2019-03-11T17:56:17.115Z,90.04
2019-03-11T17:58:43.927Z,89.94
2019-03-11T18:01:10.738Z,90.08
2019-03-11T18:03:37.513Z,89.81
2019-03-11T18:06:11.687Z,89.91
2019-03-11T18:08:33.006Z,90.13
2019-03-11T18:10:59.710Z,90.16
2019-03-11T18:13:26.499Z,90.24
2019-03-11T18:15:53.100Z,90.14
2019-03-11T18:18:19.879Z,90.16
2019-03-11T18:20:46.677Z,89.81
2019-03-11T18:23:13.367Z,89.66
2019-03-11T18:25:40.172Z,89.57
2019-03-11T18:28:06.944Z,89.47
2019-03-11T18:30:33.962Z,89.28
2019-03-11T18:33:00.766Z,89.33
2019-03-11T18:35:27.893Z,89.44
2019-03-11T18:38:03.280Z,89.56
2019-03-11T18:40:23.242Z,89.63
2019-03-11T18:42:50.062Z,89.27
2019-03-11T18:45:16.957Z,89.40
2019-03-11T18:47:43.872Z,89.05
2019-03-11T18:50:11.039Z,89.11
2019-03-11T18:52:37.808Z,89.28
2019-03-11T18:55:04.999Z,89.14
2019-03-11T18:57:33.027Z,88.47
2019-03-11T18:59:59.722Z,88.37
2019-03-11T19:02:26.525Z,87.96
2019-03-11T19:04:53.187Z,88.03
2019-03-11T19:07:19.988Z,87.30
2019-03-11T19:09:46.625Z,87.32
2019-03-11T19:12:13.378Z,86.61
2019-03-11T19:14:40.025Z,86.64
2019-03-11T19:17:06.799Z,87.12
2019-03-11T19:19:45.371Z,87.40
2019-03-11T19:22:02.203Z,87.64
2019-03-11T19:24:29.085Z,87.01
2019-03-11T19:27:15.356Z,87.23
2019-03-11T19:29:42.136Z,86.65
2019-03-11T19:32:09.280Z,86.30
2019-03-11T19:34:35.952Z,85.87
2019-03-11T19:37:02.738Z,85.53
2019-03-11T19:39:29.440Z,85.46
2019-03-11T19:41:56.228Z,85.87
2019-03-11T19:44:22.845Z,86.33
2019-03-11T19:46:49.729Z,85.82
2019-03-11T19:49:16.483Z,85.46
2019-03-11T19:51:43.350Z,84.42
2019-03-11T19:54:10.165Z,84.67
2019-03-11T19:56:36.828Z,83.80
2019-03-11T19:59:03.667Z,84.91
2019-03-11T20:01:30.345Z,85.07
2019-03-11T20:03:57.122Z,84.70
2019-03-11T20:06:23.930Z,84.16
2019-03-11T20:08:51.215Z,82.66
2019-03-11T20:11:17.822Z,83.42
2019-03-11T20:13:44.796Z,84.77
2019-03-11T20:16:11.678Z,84.07
2019-03-11T20:18:38.365Z,83.81
2019-03-11T20:21:05.287Z,85.04
2019-03-11T20:23:32.441Z,84.56
2019-03-11T20:25:59.263Z,84.98
2019-03-11T20:28:25.984Z,85.35
2019-03-11T20:30:52.830Z,85.28
2019-03-11T20:33:20.010Z,85.37
2019-03-11T20:35:46.619Z,85.35
2019-03-11T20:38:13.347Z,85.81
2019-03-11T20:40:40.166Z,86.25
2019-03-11T20:43:07.007Z,86.34
2019-03-11T20:45:33.818Z,85.94
2019-03-11T20:48:00.568Z,85.36
2019-03-11T20:50:27.463Z,85.27
2019-03-11T20:52:54.227Z,84.86
2019-03-11T20:55:20.924Z,85.13
2019-03-11T20:57:47.891Z,85.18
2019-03-11T21:00:16.547Z,84.87
2019-03-11T21:02:43.409Z,85.14
2019-03-11T21:05:10.213Z,84.24
2019-03-11T21:07:36.859Z,84.50
2019-03-11T21:10:04.653Z,84.33
2019-03-11T21:12:31.468Z,84.88
2019-03-11T21:14:58.319Z,84.08
2019-03-11T21:17:28.268Z,82.82
2019-03-11T21:19:53.706Z,83.41
2019-03-11T21:22:20.443Z,83.97
2019-03-11T21:24:55.526Z,83.88
2019-03-11T21:27:16.019Z,84.01
2019-03-11T21:29:42.693Z,83.58
2019-03-11T21:32:09.524Z,83.87
2019-03-11T21:34:36.239Z,83.26
2019-03-11T21:37:03.086Z,83.41
2019-03-11T21:39:29.957Z,83.36
2019-03-11T21:41:56.803Z,84.29
2019-03-11T21:44:23.485Z,83.27
2019-03-11T21:46:50.159Z,83.07
2019-03-11T21:49:17.021Z,82.96
2019-03-11T21:51:43.789Z,83.11
2019-03-11T21:54:10.603Z,83.28
2019-03-11T21:56:37.280Z,83.67
2019-03-11T21:59:04.182Z,83.83
2019-03-11T22:01:30.860Z,83.87
2019-03-11T22:03:57.471Z,84.00
2019-03-11T22:06:24.275Z,84.17
2019-03-11T22:08:51.106Z,84.26
2019-03-11T22:11:17.888Z,83.81
2019-03-11T22:13:44.462Z,84.00
2019-03-11T22:16:11.256Z,84.32
2019-03-11T22:18:38.036Z,84.23
2019-03-11T22:21:04.837Z,84.29
2019-03-11T22:23:31.543Z,84.43
2019-03-11T22:25:58.115Z,84.65
2019-03-11T22:28:24.817Z,84.63
2019-03-11T22:30:51.507Z,84.63
2019-03-11T22:33:18.295Z,85.06
2019-03-11T22:35:45.083Z,85.53
2019-03-11T22:38:11.763Z,85.64
2019-03-11T22:40:38.469Z,85.58
2019-03-11T22:43:05.258Z,85.48
2019-03-11T22:45:32.092Z,85.67
2019-03-11T22:47:58.755Z,85.69
2019-03-11T22:50:25.498Z,85.76
2019-03-11T22:52:52.169Z,85.75
2019-03-11T22:55:19.121Z,85.68
2019-03-11T22:57:45.926Z,85.92
2019-03-11T23:00:24.195Z,85.71
2019-03-11T23:02:50.975Z,86.06
2019-03-11T23:05:17.765Z,85.88
2019-03-11T23:07:44.556Z,85.90
2019-03-11T23:10:11.381Z,85.67
2019-03-11T23:12:38.062Z,86.01
2019-03-11T23:15:05.210Z,86.42
2019-03-11T23:17:31.988Z,86.58
2019-03-11T23:19:58.572Z,86.27
2019-03-11T23:22:25.268Z,86.34
2019-03-11T23:24:51.857Z,86.62
2019-03-11T23:27:18.646Z,86.78
2019-03-11T23:29:45.596Z,86.60
2019-03-11T23:32:12.669Z,86.84
2019-03-11T23:34:39.447Z,87.13
2019-03-11T23:37:06.248Z,87.00
2019-03-11T23:39:32.953Z,86.91
2019-03-11T23:41:59.765Z,86.92
2019-03-11T23:44:26.462Z,87.38
2019-03-11T23:46:53.152Z,87.39
2019-03-11T23:49:19.858Z,87.85
2019-03-11T23:51:47.386Z,87.91
2019-03-11T23:54:14.186Z,88.07
2019-03-11T23:56:40.880Z,87.99
2019-03-11T23:59:07.569Z,88.12
